METAR Data
IDs: Format: Raw Decoded Include TAF

Data at: 1956 UTC 14 Dec 2018

KE38 141935Z AUTO 01012G16KT 10SM CLR 10/M19 A3039 RMK AO2 T01021191
KE38 141915Z AUTO 36008KT 10SM CLR 10/M19 A3040 RMK AO2 T01001193
KE38 141855Z AUTO 35009G17KT 10SM CLR 10/M22 A3041 RMK AO2 T00951217
KE38 141835Z AUTO 36011G16KT 10SM CLR 09/M21 A3042 RMK AO2 T00941214
KE38 141815Z AUTO 05007KT 10SM CLR 09/M19 A3043 RMK AO2 T00881192
KE38 141755Z AUTO 34008G21KT 320V030 10SM CLR 08/M17 A3044 RMK AO2 T00831171 10083 21021
KE38 141735Z AUTO 34008KT 10SM CLR 08/M16 A3046 RMK AO2 T00791161
KE38 141715Z AUTO 35010G15KT 10SM CLR 08/M16 A3047 RMK AO2 T00751159
KE38 141655Z AUTO 33008G14KT 10SM CLR 07/M15 A3047 RMK AO2 T00661154
KE38 141635Z AUTO 33007KT 10SM CLR 06/M15 A3047 RMK AO2 T00571150
KE38 141615Z AUTO 31005KT 10SM CLR 06/M14 A3046 RMK AO2 T00551144
KE38 141555Z AUTO 35003KT 10SM CLR 04/M15 A3045 RMK AO2 T00441148
KE38 141535Z AUTO 34003KT 10SM CLR 03/M14 A3044 RMK AO2 T00341144
KE38 141515Z AUTO 00000KT 10SM CLR 02/M14 A3043 RMK AO2 T00221136
KE38 141455Z AUTO 00000KT 10SM CLR 01/M12 A3043 RMK AO2 T00071120
KE38 141435Z AUTO 00000KT 10SM CLR 00/M12 A3042 RMK AO2 T10051117
KE38 141415Z AUTO 00000KT 10SM CLR M01/M14 A3041 RMK AO2 T10101144
KE38 141355Z AUTO 36003KT 10SM CLR M01/M15 A3040 RMK AO2 T10151150
KE38 141335Z AUTO 35005KT 10SM CLR M01/M15 A3040 RMK AO2 T10081150
KE38 141315Z AUTO 00000KT 10SM CLR M01/M15 A3039 RMK AO2 T10111148
KE38 141255Z AUTO 00000KT 10SM CLR M02/M15 A3039 RMK AO2 T10181147
KE38 141235Z AUTO 32005KT 10SM CLR M01/M14 A3038 RMK AO2 T10081145
KE38 141215Z AUTO 32008KT 10SM CLR 00/M14 A3037 RMK AO2 T10011140
KE38 141155Z AUTO 32009KT 10SM CLR 00/M13 A3036 RMK AO2 T10051135 10000 21021
KE38 141135Z AUTO 32008KT 10SM CLR 00/M13 A3036 RMK AO2 T10031130
KE38 141115Z AUTO 33009KT 10SM CLR 00/M13 A3036 RMK AO2 T00001130
KE38 141055Z AUTO 33009KT 10SM CLR 00/M12 A3035 RMK AO2 T10011125
KE38 141035Z AUTO 33010KT 10SM CLR 00/M12 A3036 RMK AO2 T00001123
KE38 141015Z AUTO 33010KT 10SM CLR 00/M12 A3035 RMK AO2 T10011117
KE38 140955Z AUTO 33010KT 10SM CLR 00/M12 A3035 RMK AO2 T00001116
KE38 140935Z AUTO 33011KT 10SM CLR 00/M11 A3034 RMK AO2 T10031113
KE38 140915Z AUTO 33010KT 10SM CLR 00/M11 A3035 RMK AO2 T10051108
KE38 140855Z AUTO 32009KT 10SM CLR M01/M10 A3035 RMK AO2 T10091103
KE38 140835Z AUTO 32009KT 10SM CLR M01/M10 A3035 RMK AO2 T10101101
KE38 140815Z AUTO 33008KT 10SM CLR M01/M10 A3035 RMK AO2 T10151100
KE38 140750Z AUTO 32006KT 10SM CLR M02/M10 A3034 RMK AO2 T10201100
KE38 140735Z AUTO 33004KT 10SM CLR M01/M10 A3034 RMK AO2 T10151099
KE38 140715Z AUTO 35006KT 10SM CLR M01/M09 A3034 RMK AO2 T10101095
KE38 140655Z AUTO 36005KT 10SM CLR M01/M09 A3034 RMK AO2 T10141091
KE38 140635Z AUTO 36006KT 10SM CLR M02/M09 A3034 RMK AO2 T10161088
KE38 140615Z AUTO 01006KT 10SM CLR M01/M08 A3034 RMK AO2 T10101084
KE38 140555Z AUTO 02005KT 10SM CLR 00/M07 A3033 RMK AO2 T10051075 10045 21026 401071026
KE38 140535Z AUTO 02005KT 10SM CLR 00/M07 A3032 RMK AO2 T10021072
KE38 140515Z AUTO 07004KT 10SM CLR 00/M07 A3032 RMK AO2 T00001066
KE38 140455Z AUTO 01003KT 10SM CLR 00/M07 A3032 RMK AO2 T00031071
KE38 140435Z AUTO 00000KT 10SM CLR 01/M07 A3031 RMK AO2 T00111071
KE38 140415Z AUTO 00000KT 10SM CLR 00/M06 A3031 RMK AO2 T10051065
KE38 140355Z AUTO 30003KT 10SM CLR M02/M06 A3031 RMK AO2 T10191064
KE38 140335Z AUTO 27003KT 10SM CLR M01/M06 A3030 RMK AO2 T10131064
KE38 140315Z AUTO 26004KT 10SM CLR M01/M06 A3030 RMK AO2 T10131062
KE38 140255Z AUTO 25006KT 10SM CLR M01/M06 A3028 RMK AO2 T10081060
KE38 140235Z AUTO 27005KT 10SM CLR 00/M07 A3028 RMK AO2 T00001066
KE38 140215Z AUTO 31003KT 10SM CLR 01/M07 A3027 RMK AO2 T00141068
KE38 140155Z AUTO 00000KT 10SM CLR 01/M07 A3027 RMK AO2 T00121066
KE38 140135Z AUTO 00000KT 10SM CLR 02/M07 A3027 RMK AO2 T00221070
KE38 140115Z AUTO 00000KT 10SM CLR 03/M07 A3027 RMK AO2 T00251068
KE38 140055Z AUTO 00000KT 10SM CLR 02/M07 A3026 RMK AO2 T00191070
KE38 140035Z AUTO 34004KT 10SM CLR 03/M07 A3026 RMK AO2 T00281070
KE38 140015Z AUTO 34006KT 10SM CLR 04/M07 A3024 RMK AO2 T00371072
KE38 132355Z AUTO 33008KT 10SM CLR 05/M07 A3024 RMK AO2 T00461075 10067 20012
KE38 132335Z AUTO 35013KT 10SM CLR 06/M08 A3023 RMK AO2 T00581081
KE38 132315Z AUTO 34012G17KT 10SM CLR 07/M08 A3023 RMK AO2 T00651078
KE38 132255Z AUTO 35014G18KT 10SM CLR 07/M07 A3022 RMK AO2 T00661070
KE38 132235Z AUTO 35013G20KT 10SM CLR 07/M07 A3022 RMK AO2 T00661068
KE38 132215Z AUTO 34013KT 10SM CLR 06/M05 A3021 RMK AO2 T00641050
KE38 132155Z AUTO 35017G24KT 10SM CLR 06/M04 A3020 RMK AO2 T00611039
KE38 132135Z AUTO 35022KT 10SM CLR 06/M03 A3020 RMK AO2 T00591028
KE38 132115Z AUTO 34016KT 10SM CLR 05/01 A3021 RMK AO2 T00450009
KE38 132055Z AUTO 35019G24KT 10SM SCT028 03/02 A3024 RMK AO2 T00280016
KE38 132035Z AUTO 33016G19KT 10SM CLR 03/02 A3024 RMK AO2 T00250017
KE38 132015Z AUTO 35015G18KT 10SM SCT008 SCT011 BKN021 02/02 A3025 RMK AO2 T00220018
KE38 131955Z AUTO 36013G16KT 5SM BKN008 BKN014 OVC023 02/02 A3026 RMK AO2 T00200017
KE38 131935Z AUTO 35012G21KT 2SM BKN008 OVC014 01/01 A3027 RMK AO2 VIS 1 1/4V5 T00130008
KE38 131915Z AUTO 36016G20KT 1 1/2SM OVC008 01/00 A3026 RMK AO2 T00130003
KE38 131855Z AUTO 34016G23KT 4SM BKN014 BKN022 OVC029 03/00 A3026 RMK AO2 T00270000
KE38 131835Z AUTO 33019G32KT 7SM SCT015 BKN022 OVC028 03/00 A3026 RMK AO2 T00251002
KE38 131815Z AUTO 34022G28KT 10SM BKN018 OVC027 04/00 A3024 RMK AO2 T00380003
KE38 131755Z AUTO 34019G24KT 10SM SCT016 OVC025 04/01 A3023 RMK AO2 T00360006 10092 20034
KE38 131735Z AUTO 33021G26KT 10SM BKN015 OVC023 04/01 A3022 RMK AO2 T00370007
KE38 131715Z AUTO 34024G31KT 10SM BKN016 OVC023 04/00 A3020 RMK AO2 T00390004
KE38 131655Z AUTO 33023G30KT 10SM SCT016 BKN021 OVC031 04/00 A3019 RMK AO2 T00370000
KE38 131635Z AUTO 34028G37KT 10SM SCT021 BKN027 OVC039 05/M01 A3017 RMK AO2 T00461011
KE38 131615Z AUTO 33026G33KT 10SM SCT021 BKN030 OVC050 05/M01 A3016 RMK AO2 T00511010
KE38 131555Z AUTO 33027G34KT 10SM SCT021 SCT028 BKN050 05/M01 A3015 RMK AO2 T00491010
KE38 131535Z AUTO 35024G32KT 10SM SCT030 SCT034 BKN046 05/M02 A3013 RMK AO2 T00471021
KE38 131515Z AUTO 34022G32KT 10SM SCT034 BKN045 05/M03 A3012 RMK AO2 T00471032
KE38 131455Z AUTO 33024G41KT 10SM CLR 06/M07 A3008 RMK AO2 T00581071
KE38 131435Z AUTO 30030G38KT 10SM CLR 06/M12 A3006 RMK AO2 T00581117
KE38 131415Z AUTO 30020G28KT 10SM CLR 06/M14 A3004 RMK AO2 T00571143
KE38 131355Z AUTO 31023G29KT 10SM CLR 06/M15 A3003 RMK AO2 T00581153
KE38 131335Z AUTO 30016G22KT 10SM CLR 06/M16 A3001 RMK AO2 T00631164
KE38 131315Z AUTO 29018G29KT 10SM CLR 07/M17 A3000 RMK AO2 T00701171
KE38 131255Z AUTO 29024G31KT 10SM CLR 07/M09 A2999 RMK AO2 T00741090
KE38 131235Z AUTO 28019G30KT 10SM CLR 08/M05 A2997 RMK AO2 T00811051
KE38 131215Z AUTO 28021G36KT 10SM CLR 09/M03 A2995 RMK AO2 T00861027
KE38 131155Z AUTO 29023G34KT 10SM CLR 09/M02 A2995 RMK AO2 T00931025 10107 20085
KE38 131135Z AUTO 28025G30KT 10SM CLR 09/M01 A2992 RMK AO2 T00941011
KE38 131115Z AUTO 27017G24KT 10SM CLR 09/00 A2992 RMK AO2 T00920001
KE38 131055Z AUTO 27025G33KT 10SM CLR 10/00 A2989 RMK AO2 T00970003
KE38 131035Z AUTO 26019G32KT 10SM CLR 10/01 A2990 RMK AO2 T00980013
KE38 131015Z AUTO 27019G29KT 10SM CLR 10/02 A2992 RMK AO2 T01000020
KE38 130955Z AUTO 26022G32KT 10SM CLR 10/02 A2992 RMK AO2 T01020023
KE38 130935Z AUTO 26027G33KT 10SM CLR 11/03 A2989 RMK AO2 T01050026
KE38 130915Z AUTO 26028G36KT 10SM CLR 11/03 A2988 RMK AO2 LTG DSNT NE T01070030
KE38 130855Z AUTO 25024G31KT 10SM CLR 11/04 A2989 RMK AO2 T01050035
KE38 130835Z AUTO 25018G21KT 10SM CLR 10/04 A2990 RMK AO2 T01040037
KE38 130815Z AUTO 24020G27KT 10SM CLR 10/04 A2991 RMK AO2 T01030035